Okotoks, Canada
Current Conditions -  °F | °C
As of 1:00 AM on Friday 24 Oct 2014 (Local Time) from CYYC Reporting Station
Few Clouds Few Clouds  
Wind Chill: 41°   Ceiling: Unl
Heat Index: 46°   Visibility: 15mi
Dew Point: 27°   Wind: 13mph
Humidity: 46%   Direction: 280°W
Pressure: 29.67"   Gusts: 24mph
Location:  50.73°N, 113.97°W
Report Text: CYYC 240700Z 28011G21KT 15SM FEW150 08/M03 A2967 RMK AC1 SLP056 DENSITY ALT 3800FT
Loading
Personal Weather Stations






























Interactive Weather Map
Tropical Storm Tracking
New forecast layout! Learn more

10-Day Weather Forecast

Advertisements
Track Severe Weather on mobile